Time;durP1;ratioP1;P1;durP2;ratioP2;P2;SDS_P1;SDS_P2;PMS_P1;PMS_P2;Temp;Humidity;BMP_temperature;BMP_pressure;BME280_temperature;BME280_humidity;BME280_pressure;Samples;Min_cycle;Max_cycle;Signal;HPM_P1;HPM_P2
2021/08/09 00:01:17;;;;;;;8.80;2.67;;;;;;;;;;5138221;27;20232;-81
2021/08/09 00:03:44;;;;;;;9.93;2.77;;;;;;;;;;5137303;27;20240;-81
2021/08/09 00:06:13;;;;;;;9.00;2.90;;;;;;;;;;5137521;27;20220;-81
2021/08/09 00:08:40;;;;;;;9.03;2.90;;;;;;;;;;5137020;27;20304;-81
2021/08/09 00:11:07;;;;;;;8.27;3.00;;;;;;;;;;5136763;27;20239;-81
2021/08/09 00:13:35;;;;;;;12.67;3.23;;;;;;;;;;5136498;27;20244;-81
2021/08/09 00:16:02;;;;;;;9.30;2.70;;;;;;;;;;5136637;27;20194;-81
2021/08/09 00:18:29;;;;;;;7.40;2.90;;;;;;;;;;5137680;27;20228;-81
2021/08/09 00:20:57;;;;;;;8.77;2.80;;;;;;;;;;5137899;27;20282;-82
2021/08/09 00:23:27;;;;;;;8.93;3.30;;;;;;;;;;5138230;27;20236;-81
2021/08/09 00:25:54;;;;;;;13.43;3.43;;;;;;;;;;5138448;27;20303;-81
2021/08/09 00:28:21;;;;;;;7.97;3.00;;;;;;;;;;5138548;27;20276;-81
2021/08/09 00:30:48;;;;;;;7.90;2.97;;;;;;;;;;5138076;27;20280;-81
2021/08/09 00:33:15;;;;;;;10.07;3.47;;;;;;;;;;5137607;27;20232;-81
2021/08/09 00:35:43;;;;;;;8.13;3.50;;;;;;;;;;5137222;27;20225;-81
2021/08/09 00:38:10;;;;;;;10.10;3.10;;;;;;;;;;5136898;27;20279;-81
2021/08/09 00:40:38;;;;;;;7.33;3.17;;;;;;;;;;5136768;27;20246;-81
2021/08/09 00:43:06;;;;;;;6.20;3.03;;;;;;;;;;5137377;27;20283;-82
2021/08/09 00:45:33;;;;;;;13.73;3.50;;;;;;;;;;5136951;27;20201;-82
2021/08/09 00:48:00;;;;;;;9.70;3.00;;;;;;;;;;5136983;27;20196;-82
2021/08/09 00:50:28;;;;;;;9.70;2.77;;;;;;;;;;5136982;27;20217;-82
2021/08/09 00:52:55;;;;;;;9.33;2.90;;;;;;;;;;5136024;27;20236;-81
2021/08/09 00:55:22;;;;;;;11.10;3.60;;;;;;;;;;5136368;27;20221;-80
2021/08/09 00:57:51;;;;;;;9.67;3.33;;;;;;;;;;5137533;27;20261;-82
2021/08/09 01:00:18;;;;;;;7.93;3.10;;;;;;;;;;5136947;27;20237;-81
2021/08/09 01:02:46;;;;;;;10.60;3.23;;;;;;;;;;5135828;27;20735;-81
2021/08/09 01:05:13;;;;;;;8.17;3.60;;;;;;;;;;5136922;27;20279;-81
2021/08/09 01:07:44;;;;;;;10.53;3.50;;;;;;;;;;5137886;27;20223;-81
2021/08/09 01:10:17;;;;;;;8.63;3.47;;;;;;;;;;5137517;27;20220;-81
2021/08/09 01:12:49;;;;;;;8.53;3.40;;;;;;;;;;5136182;27;20571;-81
2021/08/09 01:15:21;;;;;;;7.60;3.10;;;;;;;;;;5136396;27;20254;-81
2021/08/09 01:17:49;;;;;;;12.33;3.43;;;;;;;;;;5136474;27;20280;-81
2021/08/09 01:20:21;;;;;;;9.87;3.67;;;;;;;;;;5136144;27;20236;-81
2021/08/09 01:22:53;;;;;;;10.47;3.70;;;;;;;;;;5135376;27;20197;-81
2021/08/09 01:25:23;;;;;;;13.47;3.67;;;;;;;;;;5134963;27;20283;-81
2021/08/09 01:27:53;;;;;;;13.07;3.57;;;;;;;;;;5134210;27;20708;-80
2021/08/09 01:30:21;;;;;;;10.70;3.33;;;;;;;;;;5134389;27;20630;-81
2021/08/09 01:32:49;;;;;;;10.33;3.87;;;;;;;;;;5134283;27;20676;-80
2021/08/09 01:35:17;;;;;;;12.80;4.00;;;;;;;;;;5134218;27;20250;-81
2021/08/09 01:37:45;;;;;;;7.23;3.70;;;;;;;;;;5115245;27;20289;-81
2021/08/09 01:40:14;;;;;;;9.00;3.30;;;;;;;;;;5113445;28;20288;-81
2021/08/09 01:42:42;;;;;;;13.77;3.83;;;;;;;;;;5113575;28;20289;-81
2021/08/09 01:45:13;;;;;;;11.20;3.73;;;;;;;;;;5113813;28;20311;-81
2021/08/09 01:47:40;;;;;;;8.63;3.70;;;;;;;;;;5113239;27;20263;-80
2021/08/09 01:50:09;;;;;;;10.93;3.80;;;;;;;;;;5113109;28;20354;-81
2021/08/09 01:52:37;;;;;;;12.80;4.10;;;;;;;;;;5113064;28;20700;-81
2021/08/09 01:55:05;;;;;;;12.43;3.93;;;;;;;;;;5113542;28;20222;-81
2021/08/09 01:57:33;;;;;;;10.33;4.13;;;;;;;;;;5113480;28;20236;-81
2021/08/09 02:00:00;;;;;;;8.37;3.97;;;;;;;;;;5113235;28;20568;-81
2021/08/09 02:02:29;;;;;;;10.00;3.93;;;;;;;;;;5113287;28;20277;-80
2021/08/09 02:04:56;;;;;;;10.93;4.00;;;;;;;;;;5112973;28;20627;-81
2021/08/09 02:07:25;;;;;;;13.57;4.03;;;;;;;;;;5112964;28;20312;-81
2021/08/09 02:09:52;;;;;;;8.20;3.63;;;;;;;;;;5113121;28;20223;-81
2021/08/09 02:12:19;;;;;;;9.47;3.90;;;;;;;;;;5113052;28;20280;-82
2021/08/09 02:14:48;;;;;;;12.87;4.50;;;;;;;;;;5113039;28;20193;-81
2021/08/09 02:17:17;;;;;;;9.30;3.97;;;;;;;;;;5112904;27;20281;-81
2021/08/09 02:19:48;;;;;;;10.23;3.87;;;;;;;;;;5112445;28;20617;-81
2021/08/09 02:22:20;;;;;;;10.70;3.67;;;;;;;;;;5112789;28;20215;-81
2021/08/09 02:24:49;;;;;;;10.63;3.83;;;;;;;;;;5112574;28;20292;-82
2021/08/09 02:27:19;;;;;;;13.07;3.80;;;;;;;;;;5112816;28;20222;-81
2021/08/09 02:29:49;;;;;;;12.43;4.10;;;;;;;;;;5112982;28;20271;-82
2021/08/09 02:32:18;;;;;;;10.30;3.90;;;;;;;;;;5112969;28;20289;-81
2021/08/09 02:34:47;;;;;;;13.57;3.90;;;;;;;;;;5112595;28;20288;-81
2021/08/09 02:37:15;;;;;;;10.87;3.90;;;;;;;;;;5126984;27;20643;-81
2021/08/09 02:39:43;;;;;;;10.33;3.90;;;;;;;;;;5133130;27;20204;-81
2021/08/09 02:42:10;;;;;;;14.30;3.77;;;;;;;;;;5132560;27;20288;-81
2021/08/09 02:44:39;;;;;;;9.13;3.63;;;;;;;;;;5113423;27;20673;-81
2021/08/09 02:47:07;;;;;;;8.07;3.70;;;;;;;;;;5112728;28;20218;-81
2021/08/09 02:49:35;;;;;;;12.03;4.10;;;;;;;;;;5112305;28;20657;-82
2021/08/09 02:52:05;;;;;;;12.17;4.23;;;;;;;;;;5112792;28;20287;-80
2021/08/09 02:54:32;;;;;;;11.67;4.03;;;;;;;;;;5112221;28;20234;-81
2021/08/09 02:57:00;;;;;;;9.97;3.67;;;;;;;;;;5111531;28;20623;-81
2021/08/09 02:59:27;;;;;;;10.57;4.57;;;;;;;;;;5112336;28;20201;-80
2021/08/09 03:01:55;;;;;;;12.17;4.20;;;;;;;;;;5116311;28;20288;-81
2021/08/09 03:04:23;;;;;;;9.53;4.23;;;;;;;;;;5116173;28;20292;-80
2021/08/09 03:06:51;;;;;;;9.10;3.67;;;;;;;;;;5116433;28;20590;-80
2021/08/09 03:09:20;;;;;;;13.43;4.33;;;;;;;;;;5116373;28;20260;-81
2021/08/09 03:11:47;;;;;;;11.87;3.77;;;;;;;;;;5116590;28;20229;-81
2021/08/09 03:14:24;;;;;;;11.70;3.90;;;;;;;;;;5116627;28;20280;-80
2021/08/09 03:16:52;;;;;;;11.57;3.53;;;;;;;;;;5116739;27;20627;-80
2021/08/09 03:19:19;;;;;;;9.27;4.23;;;;;;;;;;5116490;27;20280;-80
2021/08/09 03:21:51;;;;;;;13.03;4.00;;;;;;;;;;5115938;28;20288;-81
2021/08/09 03:24:20;;;;;;;12.77;3.83;;;;;;;;;;5116171;28;20193;-81
2021/08/09 03:26:47;;;;;;;11.87;4.23;;;;;;;;;;5116515;28;20249;-80
2021/08/09 03:29:14;;;;;;;10.63;4.30;;;;;;;;;;5116295;28;20618;-80
2021/08/09 03:31:42;;;;;;;12.30;3.97;;;;;;;;;;5115910;28;20674;-81
2021/08/09 03:34:09;;;;;;;13.03;4.47;;;;;;;;;;5115894;28;20233;-81
2021/08/09 03:36:37;;;;;;;12.53;3.97;;;;;;;;;;5115937;28;20288;-81
2021/08/09 03:39:04;;;;;;;8.60;3.60;;;;;;;;;;5116187;28;20266;-80
2021/08/09 03:41:33;;;;;;;11.97;4.37;;;;;;;;;;5116147;28;20280;-81
2021/08/09 03:44:00;;;;;;;9.70;4.30;;;;;;;;;;5115771;28;20233;-80
2021/08/09 03:46:27;;;;;;;11.07;4.30;;;;;;;;;;5115480;28;20783;-81
2021/08/09 03:48:55;;;;;;;8.60;4.27;;;;;;;;;;5115650;28;20281;-81
2021/08/09 03:51:22;;;;;;;10.77;4.53;;;;;;;;;;5116027;28;20209;-81
2021/08/09 03:53:49;;;;;;;9.83;4.30;;;;;;;;;;5114938;28;20325;-81
2021/08/09 03:56:17;;;;;;;12.27;4.70;;;;;;;;;;5114303;28;20288;-81
2021/08/09 03:58:45;;;;;;;12.37;5.13;;;;;;;;;;5114585;28;20225;-81
2021/08/09 04:01:13;;;;;;;10.03;4.07;;;;;;;;;;5114321;28;20639;-81
2021/08/09 04:03:40;;;;;;;13.10;4.63;;;;;;;;;;5114418;28;20653;-81
2021/08/09 04:06:07;;;;;;;10.00;4.53;;;;;;;;;;5114504;28;20758;-80
2021/08/09 04:08:34;;;;;;;9.90;4.00;;;;;;;;;;5114147;28;20249;-81
2021/08/09 04:11:01;;;;;;;9.70;4.10;;;;;;;;;;5114114;28;20236;-81
2021/08/09 04:13:29;;;;;;;10.80;4.50;;;;;;;;;;5114430;28;20285;-80
2021/08/09 04:15:57;;;;;;;10.57;4.50;;;;;;;;;;5113893;28;20240;-80
2021/08/09 04:18:28;;;;;;;8.53;4.20;;;;;;;;;;5114250;28;20281;-80
2021/08/09 04:20:55;;;;;;;9.33;4.30;;;;;;;;;;5113948;28;20201;-81
2021/08/09 04:23:22;;;;;;;8.30;4.17;;;;;;;;;;5113880;28;20195;-81
2021/08/09 04:25:50;;;;;;;10.50;4.20;;;;;;;;;;5114212;28;20221;-81
2021/08/09 04:28:17;;;;;;;10.67;4.00;;;;;;;;;;5113929;28;20229;-81
2021/08/09 04:30:44;;;;;;;13.50;4.20;;;;;;;;;;5113685;28;20242;-79
2021/08/09 04:33:13;;;;;;;9.33;4.13;;;;;;;;;;5113755;28;20618;-81
2021/08/09 04:35:40;;;;;;;11.20;4.30;;;;;;;;;;5113643;28;20246;-80
2021/08/09 04:38:08;;;;;;;11.63;4.30;;;;;;;;;;5113799;28;20563;-81
2021/08/09 04:40:35;;;;;;;12.33;4.03;;;;;;;;;;5113795;28;20229;-82
2021/08/09 04:43:02;;;;;;;8.93;3.93;;;;;;;;;;5113898;28;20280;-81
2021/08/09 04:45:29;;;;;;;9.20;4.10;;;;;;;;;;5113467;28;20229;-81
2021/08/09 04:47:56;;;;;;;6.73;3.87;;;;;;;;;;5113463;28;20304;-81
2021/08/09 04:50:25;;;;;;;8.80;4.10;;;;;;;;;;5113471;28;20240;-81
2021/08/09 04:52:52;;;;;;;7.60;3.72;;;;;;;;;;5073644;28;1125580;-81
2021/08/09 04:55:21;;;;;;;7.43;4.00;;;;;;;;;;5114419;28;20258;-82
2021/08/09 04:57:48;;;;;;;8.40;3.57;;;;;;;;;;5114051;28;20232;-82
2021/08/09 05:00:15;;;;;;;7.43;3.70;;;;;;;;;;5114496;28;20284;-81
2021/08/09 05:02:43;;;;;;;7.63;3.70;;;;;;;;;;5114400;28;20194;-82
2021/08/09 05:05:10;;;;;;;7.43;3.80;;;;;;;;;;5114491;28;20277;-81
2021/08/09 05:07:39;;;;;;;5.30;3.30;;;;;;;;;;5114132;28;20253;-81
2021/08/09 05:10:07;;;;;;;8.23;3.77;;;;;;;;;;5114241;27;20282;-82
2021/08/09 05:12:34;;;;;;;5.70;3.53;;;;;;;;;;5114278;28;20284;-82
2021/08/09 05:15:02;;;;;;;8.27;3.80;;;;;;;;;;5114196;28;20241;-83
2021/08/09 05:17:30;;;;;;;6.60;3.43;;;;;;;;;;5114276;28;20198;-82
2021/08/09 05:19:58;;;;;;;8.73;3.27;;;;;;;;;;5113738;28;20297;-82
2021/08/09 05:22:25;;;;;;;7.47;3.43;;;;;;;;;;5113660;28;20237;-82
2021/08/09 05:24:54;;;;;;;9.03;3.93;;;;;;;;;;5113788;28;20241;-81
2021/08/09 05:27:21;;;;;;;9.07;3.77;;;;;;;;;;5113737;28;20218;-82
2021/08/09 05:29:48;;;;;;;9.17;3.83;;;;;;;;;;5113390;28;20288;-82
2021/08/09 05:32:15;;;;;;;9.40;3.77;;;;;;;;;;5113619;28;20240;-81
2021/08/09 05:34:46;;;;;;;7.67;3.93;;;;;;;;;;5113478;28;20233;-82
2021/08/09 05:37:13;;;;;;;7.13;4.00;;;;;;;;;;5113307;28;20677;-82
2021/08/09 05:39:40;;;;;;;8.00;3.73;;;;;;;;;;5113767;28;20205;-82
2021/08/09 05:42:09;;;;;;;7.73;3.97;;;;;;;;;;5114058;28;20288;-82
2021/08/09 05:44:37;;;;;;;7.70;3.70;;;;;;;;;;5113001;28;20236;-82
2021/08/09 05:47:04;;;;;;;13.90;4.50;;;;;;;;;;5113660;28;20244;-81
2021/08/09 05:49:31;;;;;;;5.93;3.60;;;;;;;;;;5113527;28;20224;-82
2021/08/09 05:51:58;;;;;;;7.37;3.83;;;;;;;;;;5113734;28;20237;-81
2021/08/09 05:54:25;;;;;;;6.03;3.63;;;;;;;;;;5112957;28;20269;-82
2021/08/09 05:56:53;;;;;;;9.77;4.03;;;;;;;;;;5113225;28;20225;-82
2021/08/09 05:59:21;;;;;;;8.60;4.20;;;;;;;;;;5113367;28;20618;-82
2021/08/09 06:01:49;;;;;;;5.60;3.60;;;;;;;;;;5113293;28;20233;-81
2021/08/09 06:04:16;;;;;;;7.47;3.60;;;;;;;;;;5113461;28;20233;-82
2021/08/09 06:06:44;;;;;;;7.63;3.93;;;;;;;;;;5113018;28;20204;-82
2021/08/09 06:09:11;;;;;;;7.20;4.00;;;;;;;;;;5113109;28;20338;-82
2021/08/09 06:11:40;;;;;;;9.30;3.93;;;;;;;;;;5112717;28;20229;-82
2021/08/09 06:14:07;;;;;;;8.33;4.17;;;;;;;;;;5113069;28;20204;-82
2021/08/09 06:16:36;;;;;;;9.53;4.53;;;;;;;;;;5113161;28;20201;-82
2021/08/09 06:19:03;;;;;;;9.00;3.90;;;;;;;;;;5112967;28;20888;-81
2021/08/09 06:21:30;;;;;;;10.30;4.27;;;;;;;;;;5112757;28;20641;-82
2021/08/09 06:23:57;;;;;;;10.30;3.70;;;;;;;;;;5113170;28;20607;-82
2021/08/09 06:26:24;;;;;;;7.07;3.67;;;;;;;;;;5112697;28;20288;-81
2021/08/09 06:28:52;;;;;;;7.90;3.77;;;;;;;;;;5112840;28;20308;-82
2021/08/09 06:31:19;;;;;;;9.23;4.30;;;;;;;;;;5112930;28;20631;-82
2021/08/09 06:33:48;;;;;;;6.43;3.60;;;;;;;;;;5112848;27;20193;-82
2021/08/09 06:36:15;;;;;;;7.43;3.80;;;;;;;;;;5112867;28;20205;-82
2021/08/09 06:38:42;;;;;;;6.77;3.47;;;;;;;;;;5112607;28;20229;-81
2021/08/09 06:41:09;;;;;;;8.20;3.57;;;;;;;;;;5112598;28;20240;-82
2021/08/09 06:43:37;;;;;;;11.23;3.53;;;;;;;;;;5112596;28;20284;-82
2021/08/09 06:46:04;;;;;;;7.07;3.77;;;;;;;;;;5113065;28;20239;-82
2021/08/09 06:48:31;;;;;;;6.77;3.60;;;;;;;;;;5112490;28;20716;-82
2021/08/09 06:51:00;;;;;;;6.27;3.50;;;;;;;;;;5112490;28;20284;-82
2021/08/09 06:53:27;;;;;;;5.93;3.30;;;;;;;;;;5112495;28;20316;-82
2021/08/09 06:55:54;;;;;;;5.57;3.03;;;;;;;;;;5112521;28;20311;-81
2021/08/09 06:58:21;;;;;;;8.40;3.33;;;;;;;;;;5112643;28;20286;-81
2021/08/09 07:00:48;;;;;;;8.23;3.23;;;;;;;;;;5112648;28;20194;-82
2021/08/09 07:03:17;;;;;;;6.53;3.10;;;;;;;;;;5112835;28;20285;-81
2021/08/09 07:05:45;;;;;;;5.80;3.23;;;;;;;;;;5112691;28;20411;-81
2021/08/09 07:08:13;;;;;;;5.17;3.03;;;;;;;;;;5112304;28;20316;-82
2021/08/09 07:10:41;;;;;;;7.20;3.23;;;;;;;;;;5112379;28;20229;-81
2021/08/09 07:13:08;;;;;;;4.20;2.97;;;;;;;;;;5112404;28;20204;-81
2021/08/09 07:15:36;;;;;;;6.63;2.90;;;;;;;;;;5112305;28;20293;-82
2021/08/09 07:18:03;;;;;;;5.13;3.10;;;;;;;;;;5112791;28;20297;-81
2021/08/09 07:20:30;;;;;;;5.63;2.83;;;;;;;;;;5112292;28;20236;-81
2021/08/09 07:22:57;;;;;;;7.83;3.13;;;;;;;;;;5112185;28;20260;-81
2021/08/09 07:25:26;;;;;;;5.57;3.20;;;;;;;;;;5112030;28;20657;-81
2021/08/09 07:27:53;;;;;;;5.87;2.50;;;;;;;;;;5112167;28;20323;-81
2021/08/09 07:30:20;;;;;;;4.17;2.53;;;;;;;;;;5112067;28;20233;-81
2021/08/09 07:32:47;;;;;;;4.60;2.53;;;;;;;;;;5112081;28;20726;-81
2021/08/09 07:35:15;;;;;;;5.83;2.77;;;;;;;;;;5112411;28;20225;-82
2021/08/09 07:37:42;;;;;;;4.10;2.73;;;;;;;;;;5112445;28;20245;-82
2021/08/09 07:40:10;;;;;;;4.73;2.90;;;;;;;;;;5111679;28;20585;-81
2021/08/09 07:42:39;;;;;;;5.73;2.80;;;;;;;;;;5112081;28;20757;-80
2021/08/09 07:45:06;;;;;;;7.07;2.90;;;;;;;;;;5112072;28;20245;-81
2021/08/09 07:47:34;;;;;;;4.20;2.90;;;;;;;;;;5114556;28;20289;-81
2021/08/09 07:50:01;;;;;;;5.20;2.80;;;;;;;;;;5115931;28;20316;-81
2021/08/09 07:52:28;;;;;;;6.77;2.77;;;;;;;;;;5116015;28;20201;-82
2021/08/09 07:54:56;;;;;;;5.87;2.90;;;;;;;;;;5115157;28;20264;-81
2021/08/09 07:57:23;;;;;;;6.20;2.80;;;;;;;;;;5115967;28;20206;-81
2021/08/09 07:59:53;;;;;;;6.50;3.17;;;;;;;;;;5115685;28;20281;-81
2021/08/09 08:02:22;;;;;;;4.27;2.80;;;;;;;;;;5115892;28;20198;-82
2021/08/09 08:04:49;;;;;;;6.17;2.90;;;;;;;;;;5115441;27;20859;-82
2021/08/09 08:07:16;;;;;;;5.33;2.67;;;;;;;;;;5115503;28;20213;-81
2021/08/09 08:09:43;;;;;;;4.03;2.53;;;;;;;;;;5115230;27;20304;-81
2021/08/09 08:12:11;;;;;;;4.20;2.60;;;;;;;;;;5115414;28;20288;-82
2021/08/09 08:14:38;;;;;;;5.63;2.67;;;;;;;;;;5115641;27;20251;-81
2021/08/09 08:17:06;;;;;;;3.27;2.47;;;;;;;;;;5115228;28;20233;-81
2021/08/09 08:19:33;;;;;;;5.33;2.70;;;;;;;;;;5115291;28;20281;-82
2021/08/09 08:22:01;;;;;;;4.83;2.73;;;;;;;;;;5114730;28;20237;-81
2021/08/09 08:24:28;;;;;;;4.20;2.23;;;;;;;;;;5115465;28;20233;-81
2021/08/09 08:26:56;;;;;;;6.33;2.77;;;;;;;;;;5115281;28;20186;-81
2021/08/09 08:29:23;;;;;;;3.80;2.60;;;;;;;;;;5115267;28;20253;-82
2021/08/09 08:31:51;;;;;;;3.70;2.50;;;;;;;;;;5114978;28;20198;-81
2021/08/09 08:34:19;;;;;;;4.50;2.57;;;;;;;;;;5114908;28;20285;-81
2021/08/09 08:36:46;;;;;;;4.37;2.60;;;;;;;;;;5124829;27;20723;-82
2021/08/09 08:39:13;;;;;;;4.43;2.40;;;;;;;;;;5135789;27;20280;-81
2021/08/09 08:41:42;;;;;;;4.83;2.50;;;;;;;;;;5135444;27;20284;-82
2021/08/09 08:44:10;;;;;;;5.10;2.90;;;;;;;;;;5135191;27;20201;-81
2021/08/09 08:46:38;;;;;;;4.23;2.50;;;;;;;;;;5135425;27;20228;-81
2021/08/09 08:49:08;;;;;;;6.25;2.67;;;;;;;;;;5135431;27;20407;-81
2021/08/09 08:51:39;;;;;;;3.63;2.50;;;;;;;;;;5135276;27;20201;-82
2021/08/09 08:54:06;;;;;;;7.77;2.83;;;;;;;;;;5134919;27;20232;-82
2021/08/09 08:56:33;;;;;;;5.97;3.07;;;;;;;;;;5134976;27;20708;-81
2021/08/09 08:59:00;;;;;;;6.70;3.07;;;;;;;;;;5133607;27;21045;-81
2021/08/09 09:01:34;;;;;;;4.47;3.00;;;;;;;;;;5135043;27;20293;-82
2021/08/09 09:04:01;;;;;;;4.07;2.63;;;;;;;;;;5134943;27;20208;-81
2021/08/09 09:06:28;;;;;;;7.70;3.20;;;;;;;;;;5134797;27;20287;-81
2021/08/09 09:08:57;;;;;;;3.93;2.77;;;;;;;;;;5134897;27;20311;-82
2021/08/09 09:11:38;;;;;;;5.37;2.73;;;;;;;;;;5134642;27;20627;-81
2021/08/09 09:14:06;;;;;;;4.67;2.93;;;;;;;;;;5134756;27;20232;-81
2021/08/09 09:16:44;;;;;;;4.25;2.80;;;;;;;;;;5135811;27;20288;-82
2021/08/09 09:19:11;;;;;;;6.17;3.00;;;;;;;;;;5136296;27;20211;-82
2021/08/09 09:21:40;;;;;;;6.18;2.78;;;;;;;;;;5136219;27;20291;-81
2021/08/09 09:24:11;;;;;;;4.32;2.22;;;;;;;;;;5136343;27;20197;-82
2021/08/09 09:26:38;;;;;;;4.40;2.70;;;;;;;;;;5136845;27;20240;-82
2021/08/09 09:29:07;;;;;;;3.83;2.10;;;;;;;;;;5135790;27;20621;-82
2021/08/09 09:31:34;;;;;;;3.13;2.40;;;;;;;;;;5136065;27;20197;-82
2021/08/09 09:34:05;;;;;;;4.20;2.10;;;;;;;;;;5136007;27;20234;-82
2021/08/09 09:36:45;;;;;;;3.72;2.13;;;;;;;;;;5135152;27;20292;-82
2021/08/09 09:39:27;;;;;;;3.95;2.15;;;;;;;;;;5135837;27;20204;-82
2021/08/09 09:41:56;;;;;;;3.70;2.40;;;;;;;;;;5135897;27;20732;-82
2021/08/09 09:44:23;;;;;;;4.25;2.10;;;;;;;;;;5135102;27;20205;-82
2021/08/09 09:46:51;;;;;;;2.97;2.10;;;;;;;;;;5135512;27;20288;-83
2021/08/09 09:49:32;;;;;;;2.85;1.70;;;;;;;;;;5135558;27;20320;-82
2021/08/09 09:52:00;;;;;;;2.53;1.75;;;;;;;;;;5135579;27;20639;-82
2021/08/09 09:54:27;;;;;;;2.92;1.83;;;;;;;;;;5134265;27;20324;-82
2021/08/09 09:56:56;;;;;;;3.05;2.00;;;;;;;;;;5136609;27;20225;-82
2021/08/09 09:59:24;;;;;;;2.50;1.58;;;;;;;;;;5136406;27;20648;-82
2021/08/09 10:01:52;;;;;;;4.70;2.20;;;;;;;;;;5136368;27;20285;-83
2021/08/09 10:04:19;;;;;;;4.18;1.95;;;;;;;;;;5136300;27;20221;-82
2021/08/09 10:06:47;;;;;;;4.78;2.15;;;;;;;;;;5136659;27;20219;-82
2021/08/09 10:09:15;;;;;;;3.13;1.80;;;;;;;;;;5135923;27;20320;-83
2021/08/09 10:11:43;;;;;;;5.00;2.17;;;;;;;;;;5136200;27;20291;-82
2021/08/09 10:14:12;;;;;;;3.17;2.20;;;;;;;;;;5136338;27;20283;-82
2021/08/09 10:16:40;;;;;;;4.10;1.88;;;;;;;;;;5136352;27;20280;-82
2021/08/09 10:19:08;;;;;;;2.95;1.55;;;;;;;;;;5135794;27;20732;-83
2021/08/09 10:21:37;;;;;;;4.65;1.85;;;;;;;;;;5135489;27;20288;-83
2021/08/09 10:24:05;;;;;;;3.35;1.60;;;;;;;;;;5135354;27;20208;-82
2021/08/09 10:26:49;;;;;;;3.33;1.80;;;;;;;;;;5115315;28;20213;-83
2021/08/09 10:29:17;;;;;;;1.98;1.40;;;;;;;;;;5115412;28;20234;-83
2021/08/09 10:31:48;;;;;;;2.72;1.58;;;;;;;;;;5115183;28;20258;-83
2021/08/09 10:34:36;;;;;;;3.40;1.60;;;;;;;;;;5114720;28;20238;-83
2021/08/09 10:37:11;;;;;;;2.95;1.60;;;;;;;;;;5115472;28;20280;-83
2021/08/09 10:39:55;;;;;;;2.90;1.58;;;;;;;;;;5115699;28;20279;-83
2021/08/09 10:42:29;;;;;;;2.78;1.80;;;;;;;;;;5115349;28;20232;-83
2021/08/09 10:44:58;;;;;;;4.05;1.83;;;;;;;;;;5115215;28;20284;-83
2021/08/09 10:47:44;;;;;;;2.33;1.60;;;;;;;;;;5113795;28;20201;-83
2021/08/09 10:50:11;;;;;;;3.05;1.65;;;;;;;;;;5114133;28;20712;-82
2021/08/09 10:52:40;;;;;;;3.38;1.88;;;;;;;;;;5114338;28;20229;-83
2021/08/09 10:55:37;;;;;;;1.75;1.35;;;;;;;;;;5074252;28;20294;-82
2021/08/09 10:58:05;;;;;;;2.05;1.70;;;;;;;;;;5011864;28;20289;-83
2021/08/09 11:00:53;;;;;;;2.95;1.52;;;;;;;;;;5012708;28;20740;-83
2021/08/09 11:03:21;;;;;;;3.13;1.30;;;;;;;;;;5012474;28;20311;-83
2021/08/09 11:05:49;;;;;;;2.55;1.73;;;;;;;;;;5011471;28;20243;-83
2021/08/09 11:08:30;;;;;;;2.67;1.90;;;;;;;;;;5011374;28;20701;-83
2021/08/09 11:11:04;;;;;;;4.15;1.88;;;;;;;;;;5011380;28;20234;-82
2021/08/09 11:13:32;;;;;;;3.33;1.92;;;;;;;;;;5011298;28;20279;-82
2021/08/09 11:16:00;;;;;;;3.95;2.00;;;;;;;;;;5011922;28;20324;-82
2021/08/09 11:18:29;;;;;;;3.47;1.85;;;;;;;;;;5012694;28;20228;-84
2021/08/09 11:21:03;;;;;;;2.63;1.70;;;;;;;;;;5013004;28;20229;-83
2021/08/09 11:23:37;;;;;;;2.65;1.73;;;;;;;;;;5015564;28;20207;-83
2021/08/09 11:26:04;;;;;;;3.15;1.60;;;;;;;;;;5021601;28;20219;-83
2021/08/09 11:28:32;;;;;;;3.75;1.50;;;;;;;;;;5035117;28;20321;-83
2021/08/09 11:31:00;;;;;;;2.28;1.60;;;;;;;;;;5034760;28;20723;-82
2021/08/09 11:33:30;;;;;;;3.53;2.08;;;;;;;;;;5077213;28;20199;-83
2021/08/09 11:35:59;;;;;;;3.47;1.70;;;;;;;;;;5077693;28;20654;-83
2021/08/09 11:38:26;;;;;;;2.78;1.50;;;;;;;;;;5075648;28;20282;-83
2021/08/09 11:40:54;;;;;;;3.00;1.60;;;;;;;;;;5075471;28;20285;-83
2021/08/09 11:43:23;;;;;;;2.08;1.52;;;;;;;;;;5075213;28;20199;-82
2021/08/09 11:45:51;;;;;;;2.28;1.33;;;;;;;;;;5075123;28;20199;-83
2021/08/09 11:48:25;;;;;;;2.85;1.45;;;;;;;;;;5075200;28;20293;-82
2021/08/09 11:50:57;;;;;;;2.15;1.52;;;;;;;;;;5075003;28;20233;-83
2021/08/09 11:53:24;;;;;;;2.58;1.75;;;;;;;;;;5087100;28;20232;-82
2021/08/09 11:55:51;;;;;;;3.45;1.42;;;;;;;;;;5115972;28;20289;-83
2021/08/09 11:58:29;;;;;;;3.90;1.60;;;;;;;;;;5115728;28;20222;-83
2021/08/09 12:00:57;;;;;;;3.40;1.67;;;;;;;;;;5115079;28;20238;-83
2021/08/09 12:03:26;;;;;;;2.65;1.60;;;;;;;;;;5115596;28;20375;-83
2021/08/09 12:05:55;;;;;;;2.97;1.77;;;;;;;;;;5115705;28;20294;-83
2021/08/09 12:08:24;;;;;;;3.22;1.50;;;;;;;;;;5115226;28;20214;-83
2021/08/09 12:10:51;;;;;;;2.97;1.65;;;;;;;;;;5115599;28;20315;-82
2021/08/09 12:13:23;;;;;;;2.72;1.35;;;;;;;;;;5115590;28;20202;-82
2021/08/09 12:16:12;;;;;;;2.50;1.50;;;;;;;;;;5115096;28;20190;-83
2021/08/09 12:18:40;;;;;;;2.13;1.35;;;;;;;;;;5115690;28;20229;-83
2021/08/09 12:21:08;;;;;;;2.85;1.35;;;;;;;;;;5115334;28;20281;-84
2021/08/09 12:23:49;;;;;;;1.70;1.27;;;;;;;;;;5115323;28;20205;-83
2021/08/09 12:26:27;;;;;;;1.42;1.20;;;;;;;;;;5115120;28;20240;-84
2021/08/09 12:28:55;;;;;;;2.65;1.20;;;;;;;;;;5115069;28;20205;-84
2021/08/09 12:31:36;;;;;;;2.60;1.45;;;;;;;;;;5115332;28;20317;-83
2021/08/09 12:34:06;;;;;;;2.47;1.30;;;;;;;;;;5114792;28;20303;-84
2021/08/09 12:36:33;;;;;;;2.97;1.60;;;;;;;;;;5113763;28;20201;-83
2021/08/09 12:39:02;;;;;;;2.13;1.50;;;;;;;;;;5114684;28;20193;-83
2021/08/09 12:41:30;;;;;;;2.33;1.50;;;;;;;;;;5114803;28;20237;-82
2021/08/09 12:43:59;;;;;;;3.50;1.80;;;;;;;;;;5115204;28;20197;-83
2021/08/09 12:46:27;;;;;;;3.00;1.67;;;;;;;;;;5114581;27;20719;-83
2021/08/09 12:48:54;;;;;;;2.58;1.38;;;;;;;;;;5114916;28;20280;-82
2021/08/09 12:51:22;;;;;;;3.10;1.60;;;;;;;;;;5114953;28;20291;-83
2021/08/09 12:53:49;;;;;;;2.28;1.70;;;;;;;;;;5114288;28;20225;-83
2021/08/09 12:56:18;;;;;;;3.10;1.67;;;;;;;;;;5114629;27;20284;-83
2021/08/09 12:58:45;;;;;;;2.25;1.60;;;;;;;;;;5114172;28;20284;-84
2021/08/09 13:01:13;;;;;;;2.30;1.70;;;;;;;;;;5114392;28;20237;-83
2021/08/09 13:03:40;;;;;;;2.70;1.52;;;;;;;;;;5114674;28;20741;-83
2021/08/09 13:06:07;;;;;;;3.92;1.70;;;;;;;;;;5115821;28;20297;-83
2021/08/09 13:08:34;;;;;;;3.10;1.60;;;;;;;;;;5116084;28;20253;-83
2021/08/09 13:11:01;;;;;;;3.20;1.70;;;;;;;;;;5115732;28;20308;-84
2021/08/09 13:13:31;;;;;;;4.60;1.55;;;;;;;;;;5115870;28;20189;-83
2021/08/09 13:15:58;;;;;;;1.75;1.45;;;;;;;;;;5116385;28;20201;-83
2021/08/09 13:18:26;;;;;;;3.10;1.80;;;;;;;;;;5116818;28;20201;-84
2021/08/09 13:20:54;;;;;;;3.22;1.67;;;;;;;;;;5116526;28;20277;-84
2021/08/09 13:23:22;;;;;;;3.45;1.90;;;;;;;;;;5115912;28;20229;-84
2021/08/09 13:25:49;;;;;;;2.95;1.80;;;;;;;;;;5115504;28;20678;-83
2021/08/09 13:28:16;;;;;;;2.10;1.80;;;;;;;;;;5115757;28;20703;-83
2021/08/09 13:30:45;;;;;;;2.47;1.70;;;;;;;;;;5116083;28;20304;-84
2021/08/09 13:33:12;;;;;;;3.33;1.73;;;;;;;;;;5115995;28;20687;-83
2021/08/09 13:35:41;;;;;;;3.35;1.77;;;;;;;;;;5114149;28;20292;-84
2021/08/09 13:38:08;;;;;;;1.88;1.42;;;;;;;;;;5115346;28;20299;-83
2021/08/09 13:40:35;;;;;;;2.45;1.77;;;;;;;;;;5114993;28;20237;-83
2021/08/09 13:43:02;;;;;;;3.85;1.80;;;;;;;;;;5114914;28;20225;-84
2021/08/09 13:45:30;;;;;;;2.88;2.03;;;;;;;;;;5114270;27;20289;-84
2021/08/09 13:48:00;;;;;;;3.83;1.90;;;;;;;;;;5114289;28;20957;-83
2021/08/09 13:50:28;;;;;;;4.30;1.98;;;;;;;;;;5115488;28;20217;-83
2021/08/09 13:52:55;;;;;;;5.90;1.98;;;;;;;;;;5115500;27;20313;-83
2021/08/09 13:55:22;;;;;;;3.55;2.30;;;;;;;;;;5114830;28;20244;-82
2021/08/09 13:57:50;;;;;;;3.92;2.20;;;;;;;;;;5114829;28;20237;-83
2021/08/09 14:00:17;;;;;;;3.00;2.20;;;;;;;;;;5114512;28;20280;-82
2021/08/09 14:02:45;;;;;;;3.45;1.95;;;;;;;;;;5113984;28;20662;-82
2021/08/09 14:05:15;;;;;;;5.05;2.53;;;;;;;;;;5115200;28;20395;-82
2021/08/09 14:07:42;;;;;;;6.95;2.83;;;;;;;;;;5114704;28;20281;-81
2021/08/09 14:10:10;;;;;;;3.33;2.28;;;;;;;;;;5115127;28;20293;-82
2021/08/09 14:12:38;;;;;;;4.43;2.47;;;;;;;;;;5114770;28;20276;-82
2021/08/09 14:15:06;;;;;;;3.72;2.10;;;;;;;;;;5114386;28;20193;-82
2021/08/09 14:17:33;;;;;;;3.30;1.90;;;;;;;;;;5115680;28;20196;-82
2021/08/09 14:20:01;;;;;;;3.83;2.25;;;;;;;;;;5115780;28;20236;-82
2021/08/09 14:22:29;;;;;;;2.50;1.92;;;;;;;;;;5115264;28;20640;-83
2021/08/09 14:24:58;;;;;;;3.83;2.28;;;;;;;;;;5114518;28;20229;-82
2021/08/09 14:27:25;;;;;;;3.55;2.53;;;;;;;;;;5114374;28;20232;-83
2021/08/09 14:29:52;;;;;;;4.57;2.33;;;;;;;;;;5113801;28;20288;-82
2021/08/09 14:32:19;;;;;;;3.50;2.17;;;;;;;;;;5113999;28;20233;-82
2021/08/09 14:34:46;;;;;;;3.25;2.30;;;;;;;;;;5114828;28;20230;-82
2021/08/09 14:37:14;;;;;;;4.40;2.50;;;;;;;;;;5115287;28;20236;-82
2021/08/09 14:39:42;;;;;;;4.50;2.25;;;;;;;;;;5114181;28;20622;-82
2021/08/09 14:42:09;;;;;;;3.70;2.53;;;;;;;;;;5113977;28;20285;-82
2021/08/09 14:44:36;;;;;;;3.55;2.20;;;;;;;;;;5113988;28;20281;-83
2021/08/09 14:47:04;;;;;;;3.00;2.17;;;;;;;;;;5114979;28;20193;-83
2021/08/09 14:49:32;;;;;;;2.67;1.80;;;;;;;;;;5114063;28;20206;-83